Time;durP1;ratioP1;P1;durP2;ratioP2;P2;SDS_P1;SDS_P2;PMS_P1;PMS_P2;Temp;Humidity;BMP_temperature;BMP_pressure;BME280_temperature;BME280_humidity;BME280_pressure;Samples;Min_cycle;Max_cycle;Signal;HPM_P1;HPM_P2
2023/09/19 00:03:20;;;;;;;;;;;;;;;23.22;50.59;95374.41;10359660;28;1909;-62
2023/09/19 00:08:24;;;;;;;;;;;;;;;23.22;50.51;95370.97;10363656;28;2037;-62
2023/09/19 00:13:25;;;;;;;;;;;;;;;23.21;50.69;95367.53;10357086;28;2312;-62
2023/09/19 00:18:32;;;;;;;;;;;;;;;23.22;50.70;95370.97;10355809;28;1889;-62
2023/09/19 00:23:32;;;;;;;;;;;;;;;23.21;50.55;95380.75;10350163;28;1950;-62
2023/09/19 00:28:33;;;;;;;;;;;;;;;23.21;50.83;95379.97;10341486;28;1872;-62
2023/09/19 00:33:34;;;;;;;;;;;;;;;23.20;50.23;95381.06;10357282;28;1892;-62
2023/09/19 00:38:34;;;;;;;;;;;;;;;23.21;50.25;95385.25;10347670;28;1901;-62
2023/09/19 00:43:34;;;;;;;;;;;;;;;23.21;50.46;95385.25;10348759;28;4667;-62
2023/09/19 00:48:40;;;;;;;;;;;;;;;23.21;50.60;95390.53;10357579;28;1911;-62
2023/09/19 00:53:40;;;;;;;;;;;;;;;23.20;50.42;95394.28;10327975;28;1874;-62
2023/09/19 00:58:40;;;;;;;;;;;;;;;23.20;50.48;95396.94;10355981;28;2508;-62
2023/09/19 01:03:41;;;;;;;;;;;;;;;23.20;50.12;95407.50;10346654;28;1990;-62
2023/09/19 01:08:41;;;;;;;;;;;;;;;23.20;50.22;95410.16;10360790;28;2067;-62
2023/09/19 01:14:03;;;;;;;;;;;;;;;23.19;50.45;95419.16;10353196;28;2101;-61
2023/09/19 01:19:16;;;;;;;;;;;;;;;23.20;50.26;95415.44;10326357;28;1969;-62
2023/09/19 01:24:28;;;;;;;;;;;;;;;23.19;50.52;95432.38;10346155;28;1930;-62
2023/09/19 01:29:44;;;;;;;;;;;;;;;23.20;50.26;95431.31;10351127;28;1970;-62
2023/09/19 01:34:47;;;;;;;;;;;;;;;23.20;50.49;95441.88;10341785;28;1982;-62
2023/09/19 01:39:48;;;;;;;;;;;;;;;23.20;50.55;95436.59;10357003;28;2225;-62
2023/09/19 01:44:55;;;;;;;;;;;;;;;23.19;50.51;95435.81;10367564;28;4801;-62
2023/09/19 01:50:15;;;;;;;;;;;;;;;23.17;50.52;95445.91;10343503;28;1936;-62
2023/09/19 01:55:17;;;;;;;;;;;;;;;23.19;50.22;95451.66;10368814;28;2029;-62
2023/09/19 02:00:18;;;;;;;;;;;;;;;23.19;50.40;95437.66;10344058;28;2324;-62
2023/09/19 02:05:24;;;;;;;;;;;;;;;23.19;50.00;95437.66;10351439;28;1971;-62
2023/09/19 02:10:25;;;;;;;;;;;;;;;23.18;50.00;95441.41;10356224;28;1917;-62
2023/09/19 02:15:25;;;;;;;;;;;;;;;23.17;50.35;95442.47;10360244;28;1923;-62
2023/09/19 02:20:26;;;;;;;;;;;;;;;23.18;50.23;95444.03;10364747;28;1931;-62
2023/09/19 02:25:27;;;;;;;;;;;;;;;23.17;50.11;95439.81;10358309;28;1958;-62
2023/09/19 02:30:27;;;;;;;;;;;;;;;23.17;50.11;95442.47;10360731;28;2557;-62
2023/09/19 02:35:28;;;;;;;;;;;;;;;23.17;50.00;95445.09;10366245;28;2097;-62
2023/09/19 02:40:28;;;;;;;;;;;;;;;23.14;50.08;95440.44;10339302;28;4702;-62
2023/09/19 02:45:29;;;;;;;;;;;;;;;23.16;50.08;95454.91;10352638;28;2002;-62
2023/09/19 02:50:30;;;;;;;;;;;;;;;23.16;49.84;95454.13;10349327;28;1907;-62
2023/09/19 02:55:31;;;;;;;;;;;;;;;23.15;49.83;95461.28;10370001;28;1906;-62
2023/09/19 03:00:33;;;;;;;;;;;;;;;23.15;50.10;95458.63;10356794;28;1966;-62
2023/09/19 03:05:34;;;;;;;;;;;;;;;23.15;50.09;95455.19;10350862;28;1918;-62
2023/09/19 03:10:37;;;;;;;;;;;;;;;23.14;49.91;95451.00;10368678;28;1891;-63
2023/09/19 03:15:40;;;;;;;;;;;;;;;23.15;49.90;95449.91;10358052;28;2508;-62
2023/09/19 03:20:41;;;;;;;;;;;;;;;23.14;50.08;95456.28;10364434;28;2039;-63
2023/09/19 03:25:43;;;;;;;;;;;;;;;23.13;49.73;95455.50;10360023;28;2037;-62
2023/09/19 03:30:44;;;;;;;;;;;;;;;23.14;49.67;95458.94;10363334;28;2016;-62
2023/09/19 03:35:46;;;;;;;;;;;;;;;23.13;50.06;95460.78;10362994;28;2007;-62
2023/09/19 03:40:47;;;;;;;;;;;;;;;23.13;49.77;95467.94;10335507;28;4738;-62
2023/09/19 03:45:48;;;;;;;;;;;;;;;23.11;49.70;95470.88;10363091;28;2089;-62
2023/09/19 03:50:49;;;;;;;;;;;;;;;23.11;49.96;95464.81;10371035;28;1914;-62
2023/09/19 03:55:50;;;;;;;;;;;;;;;23.11;50.01;95470.09;10368071;28;1970;-63
2023/09/19 04:00:50;;;;;;;;;;;;;;;23.10;49.66;95465.91;10345947;28;2522;-62
2023/09/19 04:05:51;;;;;;;;;;;;;;;23.10;49.59;95473.84;10356409;28;1977;-62
2023/09/19 04:10:52;;;;;;;;;;;;;;;23.11;49.72;95480.66;10364168;28;1899;-62
2023/09/19 04:15:52;;;;;;;;;;;;;;;23.11;49.65;95476.16;10344857;28;2009;-62
2023/09/19 04:20:52;;;;;;;;;;;;;;;23.10;49.71;95471.94;10363147;28;2130;-62
2023/09/19 04:25:53;;;;;;;;;;;;;;;23.10;49.59;95492.34;10365647;28;1991;-62
2023/09/19 04:30:56;;;;;;;;;;;;;;;23.08;49.51;95489.22;10366331;28;1990;-63
2023/09/19 04:35:56;;;;;;;;;;;;;;;23.09;49.72;95496.03;10359463;28;1894;-62
2023/09/19 04:40:56;;;;;;;;;;;;;;;23.08;49.81;95513.00;10348276;28;1967;-62
2023/09/19 04:45:57;;;;;;;;;;;;;;;23.09;49.52;95509.25;10339635;28;2775;-60
2023/09/19 04:50:57;;;;;;;;;;;;;;;23.07;49.56;95514.06;10363648;28;2026;-62
2023/09/19 04:55:57;;;;;;;;;;;;;;;23.07;49.52;95524.63;10371079;28;2176;-62
2023/09/19 05:00:58;;;;;;;;;;;;;;;23.07;49.39;95527.28;10368842;28;1907;-62
2023/09/19 05:05:59;;;;;;;;;;;;;;;23.06;49.47;95537.06;10354310;28;1961;-62
2023/09/19 05:11:01;;;;;;;;;;;;;;;23.06;49.53;95542.34;10352164;28;1978;-61
2023/09/19 05:16:02;;;;;;;;;;;;;;;23.06;49.37;95555.56;10342379;28;2006;-62
2023/09/19 05:21:03;;;;;;;;;;;;;;;23.06;49.55;95557.47;10347912;28;1978;-62
2023/09/19 05:26:03;;;;;;;;;;;;;;;23.07;49.59;95569.59;10350012;28;1951;-62
2023/09/19 05:31:04;;;;;;;;;;;;;;;23.06;49.58;95566.16;10338292;28;2536;-61
2023/09/19 05:36:04;;;;;;;;;;;;;;;23.05;49.38;95569.09;10360239;28;1959;-62
2023/09/19 05:41:04;;;;;;;;;;;;;;;23.05;49.30;95569.88;10353294;28;4606;-62
2023/09/19 05:46:04;;;;;;;;;;;;;;;23.06;49.46;95578.59;10367657;28;1971;-62
2023/09/19 05:51:05;;;;;;;;;;;;;;;23.05;49.43;95582.31;10359007;28;1987;-62
2023/09/19 05:56:05;;;;;;;;;;;;;;;23.04;49.33;95586.81;10366562;28;1926;-62
2023/09/19 06:01:07;;;;;;;;;;;;;;;23.04;49.67;95588.69;10361032;28;1899;-62
2023/09/19 06:06:07;;;;;;;;;;;;;;;23.04;49.63;95594.75;10353699;28;1898;-62
2023/09/19 06:11:09;;;;;;;;;;;;;;;23.02;49.58;95593.50;10365336;28;1902;-61
2023/09/19 06:16:09;;;;;;;;;;;;;;;23.01;49.42;95597.97;10338421;28;2790;-64
2023/09/19 06:21:09;;;;;;;;;;;;;;;23.02;49.24;95601.41;10361644;28;1968;-61
2023/09/19 06:26:10;;;;;;;;;;;;;;;23.01;49.53;95599.84;10349811;28;1903;-63
2023/09/19 06:31:10;;;;;;;;;;;;;;;23.00;49.62;95596.41;10357286;28;1918;-63
2023/09/19 06:36:11;;;;;;;;;;;;;;;23.02;49.65;95604.06;10360447;28;1904;-63
2023/09/19 06:41:12;;;;;;;;;;;;;;;23.01;49.59;95603.28;10357387;28;1840;-63
2023/09/19 06:46:12;;;;;;;;;;;;;;;23.02;49.64;95614.63;10349227;28;1902;-63
2023/09/19 06:51:15;;;;;;;;;;;;;;;23.03;49.53;95616.97;10358665;28;1864;-63
2023/09/19 06:56:15;;;;;;;;;;;;;;;23.02;49.25;95618.03;10368831;28;1888;-63
2023/09/19 07:01:15;;;;;;;;;;;;;;;23.02;49.48;95620.69;10355051;28;2684;-63
2023/09/19 07:06:16;;;;;;;;;;;;;;;23.04;49.67;95628.34;10352378;28;1906;-64
2023/09/19 07:11:17;;;;;;;;;;;;;;;23.04;49.31;95637.03;10358870;28;1845;-64
2023/09/19 07:16:27;;;;;;;;;;;;;;;23.05;49.43;95641.25;10349106;28;1892;-64
2023/09/19 07:21:27;;;;;;;;;;;;;;;23.05;49.36;95651.84;10357941;28;1892;-65
2023/09/19 07:26:27;;;;;;;;;;;;;;;23.06;49.46;95655.28;10364896;28;1918;-64
2023/09/19 07:31:28;;;;;;;;;;;;;;;23.05;49.41;95651.03;10359023;28;1842;-63
2023/09/19 07:36:29;;;;;;;;;;;;;;;23.05;49.33;95645.75;10364120;28;2013;-64
2023/09/19 07:41:32;;;;;;;;;;;;;;;23.04;49.13;95644.22;10356717;28;4607;-64
2023/09/19 07:46:32;;;;;;;;;;;;;;;23.06;49.39;95658.69;10365871;28;2909;-63
2023/09/19 07:51:33;;;;;;;;;;;;;;;23.05;49.29;95649.19;10357045;28;1912;-64
2023/09/19 07:56:33;;;;;;;;;;;;;;;23.06;49.59;95652.63;10359856;28;1836;-64
2023/09/19 08:01:35;;;;;;;;;;;;;;;23.06;49.31;95652.63;10366119;28;1889;-62
2023/09/19 08:06:38;;;;;;;;;;;;;;;23.06;49.46;95657.91;10352765;28;1918;-64
2023/09/19 08:11:39;;;;;;;;;;;;;;;23.05;49.20;95656.34;10353413;28;1983;-62
2023/09/19 08:16:39;;;;;;;;;;;;;;;23.06;49.67;95663.22;10355549;28;1832;-63
2023/09/19 08:21:40;;;;;;;;;;;;;;;23.06;49.43;95663.97;10351604;28;1825;-64
2023/09/19 08:26:40;;;;;;;;;;;;;;;23.06;49.43;95665.84;10357967;28;1983;-64
2023/09/19 08:31:40;;;;;;;;;;;;;;;23.05;49.52;95665.06;10361486;28;2465;-64
2023/09/19 08:36:43;;;;;;;;;;;;;;;23.07;49.33;95662.13;10358446;28;2156;-64
2023/09/19 08:41:43;;;;;;;;;;;;;;;23.08;49.60;95663.69;10359711;28;4603;-64
2023/09/19 08:46:43;;;;;;;;;;;;;;;23.07;49.33;95659.47;10369442;28;1918;-64
2023/09/19 08:51:45;;;;;;;;;;;;;;;23.09;49.27;95659.97;10345639;28;1794;-64
2023/09/19 08:56:47;;;;;;;;;;;;;;;23.09;49.24;95662.59;10343009;28;1829;-64
2023/09/19 09:01:47;;;;;;;;;;;;;;;23.10;49.50;95664.94;10343919;28;1889;-64
2023/09/19 09:06:48;;;;;;;;;;;;;;;23.11;49.46;95663.91;10351052;28;1999;-66
2023/09/19 09:11:52;;;;;;;;;;;;;;;23.12;49.31;95678.66;10342718;28;1919;-64
2023/09/19 09:16:56;;;;;;;;;;;;;;;23.13;49.35;95682.09;10346177;28;2613;-63
2023/09/19 09:22:09;;;;;;;;;;;;;;;23.12;49.07;95683.19;10332818;28;1878;-63
2023/09/19 09:27:10;;;;;;;;;;;;;;;23.13;49.31;95687.38;10349792;28;1906;-63
2023/09/19 09:32:23;;;;;;;;;;;;;;;23.13;49.52;95676.81;10335237;28;1888;-63
2023/09/19 09:37:25;;;;;;;;;;;;;;;23.15;49.33;95667.53;10338566;28;1832;-63
2023/09/19 09:42:35;;;;;;;;;;;;;;;23.15;49.11;95672.81;10352747;28;4703;-63
2023/09/19 09:47:57;;;;;;;;;;;;;;;23.15;48.75;95677.31;10354899;28;1961;-63
2023/09/19 09:53:06;;;;;;;;;;;;;;;23.15;49.03;95672.03;10354881;28;1897;-63
2023/09/19 09:58:17;;;;;;;;;;;;;;;23.17;49.18;95677.81;10334409;28;1881;-63
2023/09/19 10:03:21;;;;;;;;;;;;;;;23.16;49.25;95689.47;10358884;28;1917;-63
2023/09/19 10:08:21;;;;;;;;;;;;;;;23.18;49.46;95687.31;10364276;28;1837;-63
2023/09/19 10:13:23;;;;;;;;;;;;;;;23.20;49.14;95690.44;10354263;28;1885;-65
2023/09/19 10:18:24;;;;;;;;;;;;;;;23.21;49.37;95682.22;10357883;28;2561;-65
2023/09/19 10:23:25;;;;;;;;;;;;;;;23.24;49.69;95686.16;10352189;28;1944;-64
2023/09/19 10:28:27;;;;;;;;;;;;;;;23.26;49.64;95684.78;10345866;28;1934;-63
2023/09/19 10:33:29;;;;;;;;;;;;;;;23.27;49.61;95681.06;10338425;28;1889;-63
2023/09/19 10:38:31;;;;;;;;;;;;;;;23.27;49.55;95693.47;10341680;28;2113;-63
2023/09/19 10:43:32;;;;;;;;;;;;;;;23.28;49.39;95684.50;10357355;28;4595;-63
2023/09/19 10:48:32;;;;;;;;;;;;;;;23.27;49.40;95693.47;10346147;28;1930;-63
2023/09/19 10:53:50;;;;;;;;;;;;;;;23.27;49.33;95690.84;10349755;28;1897;-63
2023/09/19 10:58:51;;;;;;;;;;;;;;;23.28;49.57;95689.78;10355214;28;1838;-63
2023/09/19 11:03:53;;;;;;;;;;;;;;;23.28;49.23;95682.63;10366612;28;2654;-63
2023/09/19 11:08:56;;;;;;;;;;;;;;;23.29;49.30;95684.19;10344337;28;1926;-62
2023/09/19 11:14:15;;;;;;;;;;;;;;;23.30;49.46;95684.97;10353485;28;1955;-63
2023/09/19 11:19:16;;;;;;;;;;;;;;;23.30;49.45;95680.47;10370403;28;1976;-63
2023/09/19 11:24:22;;;;;;;;;;;;;;;23.31;49.51;95668.03;10344852;28;1906;-63
2023/09/19 11:29:25;;;;;;;;;;;;;;;23.32;49.44;95677.56;10341630;28;1901;-63
2023/09/19 11:34:45;;;;;;;;;;;;;;;23.34;49.42;95678.06;10337201;28;1904;-63
2023/09/19 11:40:08;;;;;;;;;;;;;;;23.35;49.31;95671.69;10361986;28;1825;-63
2023/09/19 11:45:29;;;;;;;;;;;;;;;23.36;49.19;95670.63;10358705;28;2025;-62
2023/09/19 11:50:29;;;;;;;;;;;;;;;23.35;49.19;95677.75;10362911;28;1905;-63
2023/09/19 11:55:34;;;;;;;;;;;;;;;;;;10344879;28;1897;-63
2023/09/19 12:00:35;;;;;;;;;;;;;;;23.31;48.79;95681.25;10350708;28;1917;-63
2023/09/19 12:05:36;;;;;;;;;;;;;;;23.30;48.54;95674.41;10340088;28;2693;-63
2023/09/19 12:10:50;;;;;;;;;;;;;;;23.29;48.12;95672.81;10341205;28;1995;-63
2023/09/19 12:15:51;;;;;;;;;;;;;;;23.29;47.95;95670.19;10358855;28;1897;-63
2023/09/19 12:20:51;;;;;;;;;;;;;;;23.29;48.31;95662.25;10351211;28;1885;-63
2023/09/19 12:25:53;;;;;;;;;;;;;;;23.28;48.40;95661.47;10355830;28;2013;-63
2023/09/19 12:30:57;;;;;;;;;;;;;;;23.32;47.89;95667.00;10339173;28;1888;-62
2023/09/19 12:35:58;;;;;;;;;;;;;;;23.33;48.00;95665.91;10355223;28;1876;-63
2023/09/19 12:41:00;;;;;;;;;;;;;;;;;;10354780;28;4632;-63
2023/09/19 12:46:00;;;;;;;;;;;;;;;23.35;48.14;95661.09;10335162;28;1918;-63
2023/09/19 12:51:12;;;;;;;;;;;;;;;23.31;48.07;95665.38;10340970;28;2658;-63
2023/09/19 12:56:15;;;;;;;;;;;;;;;23.32;47.95;95659.06;10350544;28;1886;-63
2023/09/19 13:01:16;;;;;;;;;;;;;;;23.32;48.16;95665.13;10356315;28;1880;-63
2023/09/19 13:06:17;;;;;;;;;;;;;;;23.31;47.89;95668.03;10340764;28;1946;-63
2023/09/19 13:11:18;;;;;;;;;;;;;;;23.29;47.30;95667.53;10348458;28;1841;-61
2023/09/19 13:16:23;;;;;;;;;;;;;;;23.25;47.34;95659.41;10341736;28;1893;-64
2023/09/19 13:21:29;;;;;;;;;;;;;;;23.27;47.48;95656.47;10359334;28;1844;-63
2023/09/19 13:26:29;;;;;;;;;;;;;;;23.29;47.79;95646.38;10362864;28;1977;-64
2023/09/19 13:31:30;;;;;;;;;;;;;;;23.30;47.89;95647.94;10354590;28;1822;-63
2023/09/19 13:36:31;;;;;;;;;;;;;;;23.31;48.01;95644.22;10359037;28;2623;-63
2023/09/19 13:41:32;;;;;;;;;;;;;;;23.32;47.84;95640.53;10363551;28;4595;-64
2023/09/19 13:46:34;;;;;;;;;;;;;;;23.34;47.67;95638.38;10351617;28;1968;-63
2023/09/19 13:51:35;;;;;;;;;;;;;;;23.34;48.14;95627.81;10353710;28;1927;-63
2023/09/19 13:56:36;;;;;;;;;;;;;;;23.35;47.84;95624.84;10365505;28;1849;-64
2023/09/19 14:01:36;;;;;;;;;;;;;;;23.37;47.98;95611.34;10352001;28;1901;-63
2023/09/19 14:06:37;;;;;;;;;;;;;;;23.37;47.85;95617.41;10350804;28;1977;-63
2023/09/19 14:11:37;;;;;;;;;;;;;;;23.38;48.32;95611.06;10354338;28;1876;-63
2023/09/19 14:16:39;;;;;;;;;;;;;;;23.39;48.16;95611.81;10359702;28;1853;-64
2023/09/19 14:21:42;;;;;;;;;;;;;;;23.40;48.23;95616.84;10336445;28;2527;-63
2023/09/19 14:26:42;;;;;;;;;;;;;;;23.42;47.92;95608.59;10365602;28;2013;-64
2023/09/19 14:31:42;;;;;;;;;;;;;;;23.41;48.15;95596.47;10356445;28;1892;-64
2023/09/19 14:36:45;;;;;;;;;;;;;;;23.43;48.01;95594.31;10361838;28;1889;-65
2023/09/19 14:41:45;;;;;;;;;;;;;;;23.43;48.29;95594.31;10356589;28;4639;-64
2023/09/19 14:46:45;;;;;;;;;;;;;;;23.45;47.85;95597.44;10354465;28;1931;-63
2023/09/19 14:51:47;;;;;;;;;;;;;;;23.44;47.98;95593.22;10353227;28;1853;-63
2023/09/19 14:56:53;;;;;;;;;;;;;;;23.44;47.99;95587.94;10359443;28;1983;-63
2023/09/19 15:01:53;;;;;;;;;;;;;;;23.44;47.59;95580.78;10367061;28;1834;-64
2023/09/19 15:06:54;;;;;;;;;;;;;;;23.43;47.53;95587.13;10368239;28;2550;-63
2023/09/19 15:11:55;;;;;;;;;;;;;;;23.42;47.42;95580.28;10358351;28;1882;-64
2023/09/19 15:16:55;;;;;;;;;;;;;;;23.44;47.53;95583.44;10354147;28;1899;-64
2023/09/19 15:21:55;;;;;;;;;;;;;;;23.44;47.58;95587.94;10354798;28;1841;-62
2023/09/19 15:26:55;;;;;;;;;;;;;;;23.42;47.64;95582.16;10371089;28;1938;-63
2023/09/19 15:31:58;;;;;;;;;;;;;;;23.43;47.26;95583.72;10347093;28;1920;-64
2023/09/19 15:36:58;;;;;;;;;;;;;;;23.43;47.25;95581.09;10351141;28;1796;-64
2023/09/19 15:41:59;;;;;;;;;;;;;;;23.44;47.51;95582.63;10343517;28;1870;-63
2023/09/19 15:46:59;;;;;;;;;;;;;;;23.41;47.04;95578.72;10344220;28;1911;-64
2023/09/19 15:52:00;;;;;;;;;;;;;;;23.41;47.13;95580.59;10357413;28;2635;-63
2023/09/19 15:57:00;;;;;;;;;;;;;;;23.39;47.00;95577.44;10362846;28;2007;-63
2023/09/19 16:02:00;;;;;;;;;;;;;;;23.38;47.18;95575.88;10354138;28;1841;-62
2023/09/19 16:07:01;;;;;;;;;;;;;;;23.37;47.21;95576.94;10353172;28;1975;-61
2023/09/19 16:12:02;;;;;;;;;;;;;;;23.37;47.06;95585.66;10356147;28;2049;-62
2023/09/19 16:17:03;;;;;;;;;;;;;;;23.39;46.64;95588.00;10347220;28;1877;-62
2023/09/19 16:22:03;;;;;;;;;;;;;;;23.35;46.74;95593.13;10357545;28;1841;-62
2023/09/19 16:27:04;;;;;;;;;;;;;;;23.33;46.90;95591.84;10369558;28;1981;-62
2023/09/19 16:32:04;;;;;;;;;;;;;;;23.34;46.68;95590.78;10370230;28;1822;-62
2023/09/19 16:37:05;;;;;;;;;;;;;;;23.34;46.35;95590.78;10344782;28;2715;-62
2023/09/19 16:42:05;;;;;;;;;;;;;;;23.32;46.65;95592.94;10349962;28;2140;-58
2023/09/19 16:47:05;;;;;;;;;;;;;;;23.32;46.41;95600.88;10361348;28;1981;-62
2023/09/19 16:52:06;;;;;;;;;;;;;;;23.32;46.40;95596.38;10354548;28;1896;-61
2023/09/19 16:57:06;;;;;;;;;;;;;;;23.31;46.20;95593.97;10355669;28;2011;-62
2023/09/19 17:02:07;;;;;;;;;;;;;;;23.30;46.58;95595.84;10359394;28;1982;-62
2023/09/19 17:07:07;;;;;;;;;;;;;;;23.31;46.48;95596.59;10368568;28;1979;-62
2023/09/19 17:12:08;;;;;;;;;;;;;;;23.31;46.37;95599.25;10330545;28;1875;-62
2023/09/19 17:17:08;;;;;;;;;;;;;;;23.30;46.19;95600.34;10361387;28;1912;-62
2023/09/19 17:22:09;;;;;;;;;;;;;;;23.30;46.45;95600.34;10366337;28;2567;-62
2023/09/19 17:27:09;;;;;;;;;;;;;;;23.29;46.18;95598.75;10339473;28;1969;-62
2023/09/19 17:32:10;;;;;;;;;;;;;;;23.29;46.54;95599.56;10367807;28;1791;-61
2023/09/19 17:37:11;;;;;;;;;;;;;;;23.30;46.39;95603.00;10359103;28;1932;-61
2023/09/19 17:42:13;;;;;;;;;;;;;;;23.29;46.25;95606.69;10353257;28;4642;-62
2023/09/19 17:47:14;;;;;;;;;;;;;;;23.30;46.55;95618.84;10355483;28;1975;-62
2023/09/19 17:52:14;;;;;;;;;;;;;;;23.29;46.07;95618.06;10355330;28;1889;-61
2023/09/19 17:57:15;;;;;;;;;;;;;;;23.27;46.36;95614.94;10369548;28;1893;-61
2023/09/19 18:02:16;;;;;;;;;;;;;;;23.25;46.08;95625.03;10361847;28;1932;-59
2023/09/19 18:07:16;;;;;;;;;;;;;;;23.24;46.13;95628.75;10356274;28;1979;-61
2023/09/19 18:12:16;;;;;;;;;;;;;;;23.23;46.02;95631.69;10360323;28;1825;-61
2023/09/19 18:17:17;;;;;;;;;;;;;;;23.23;45.89;95631.69;10370926;28;2015;-61
2023/09/19 18:22:17;;;;;;;;;;;;;;;23.22;45.96;95636.19;10367299;28;2665;-61
2023/09/19 18:27:17;;;;;;;;;;;;;;;23.22;46.09;95646.00;10350151;28;2046;-62
2023/09/19 18:32:18;;;;;;;;;;;;;;;23.21;45.91;95644.41;10339982;28;1858;-62
2023/09/19 18:37:18;;;;;;;;;;;;;;;23.21;45.81;95650.50;10349538;28;1884;-62
2023/09/19 18:42:18;;;;;;;;;;;;;;;23.21;45.89;95645.19;10345645;28;4713;-60
2023/09/19 18:47:22;;;;;;;;;;;;;;;23.20;45.91;95648.94;10343613;28;1910;-61
2023/09/19 18:52:22;;;;;;;;;;;;;;;23.19;45.78;95652.63;10347043;28;1970;-61
2023/09/19 18:57:23;;;;;;;;;;;;;;;23.21;45.81;95657.63;10330208;28;1886;-61
2023/09/19 19:02:23;;;;;;;;;;;;;;;23.20;45.83;95659.50;10366448;28;1834;-61
2023/09/19 19:07:23;;;;;;;;;;;;;;;23.21;46.01;95662.91;10353158;28;2555;-61
2023/09/19 19:12:24;;;;;;;;;;;;;;;23.20;45.93;95671.94;10339666;28;1868;-60
2023/09/19 19:17:24;;;;;;;;;;;;;;;23.21;45.88;95669.00;10332864;28;1951;-61
2023/09/19 19:22:24;;;;;;;;;;;;;;;23.20;45.95;95679.88;10358827;28;1899;-61
2023/09/19 19:27:25;;;;;;;;;;;;;;;23.21;46.26;95670.84;10361591;28;1981;-61
2023/09/19 19:32:26;;;;;;;;;;;;;;;23.25;46.29;95671.84;10356122;28;1765;-61
2023/09/19 19:37:27;;;;;;;;;;;;;;;23.30;46.90;95669.13;10370518;28;1822;-62
2023/09/19 19:42:28;;;;;;;;;;;;;;;23.36;46.59;95674.06;10361631;28;4611;-61
2023/09/19 19:47:32;;;;;;;;;;;;;;;23.41;47.23;95670.53;10372632;28;1957;-61
2023/09/19 19:52:32;;;;;;;;;;;;;;;23.47;46.77;95669.34;10363421;28;2651;-61
2023/09/19 19:57:34;;;;;;;;;;;;;;;23.51;47.23;95680.91;10345026;28;1894;-61
2023/09/19 20:02:35;;;;;;;;;;;;;;;23.52;46.84;95677.19;10366013;28;1873;-61
2023/09/19 20:07:36;;;;;;;;;;;;;;;23.55;46.84;95676.63;10352580;28;1981;-61
2023/09/19 20:12:36;;;;;;;;;;;;;;;23.55;46.79;95681.91;10348457;28;2030;-62
2023/09/19 20:17:37;;;;;;;;;;;;;;;23.58;46.68;95680.50;10364144;28;1856;-62
2023/09/19 20:22:37;;;;;;;;;;;;;;;23.57;46.72;95684.25;10339736;28;1935;-61
2023/09/19 20:27:40;;;;;;;;;;;;;;;23.58;46.65;95694.53;10367583;28;1951;-61
2023/09/19 20:32:41;;;;;;;;;;;;;;;23.61;46.48;95693.97;10357006;28;1892;-61
2023/09/19 20:37:41;;;;;;;;;;;;;;;23.62;46.58;95703.44;10349171;28;1884;-60
2023/09/19 20:42:42;;;;;;;;;;;;;;;23.60;46.50;95700.31;10365323;28;4650;-62
2023/09/19 20:47:42;;;;;;;;;;;;;;;23.62;46.72;95702.69;10345764;28;1979;-62
2023/09/19 20:52:42;;;;;;;;;;;;;;;23.63;46.60;95704.25;10359269;28;2517;-62
2023/09/19 20:57:43;;;;;;;;;;;;;;;23.60;46.44;95712.75;10361436;28;1984;-61
2023/09/19 21:02:45;;;;;;;;;;;;;;;23.57;46.44;95710.72;10364472;28;1930;-62
2023/09/19 21:07:47;;;;;;;;;;;;;;;23.54;46.34;95717.34;10358827;28;1956;-62
2023/09/19 21:12:47;;;;;;;;;;;;;;;23.49;46.23;95714.81;10332778;28;2157;-60
2023/09/19 21:17:48;;;;;;;;;;;;;;;23.43;46.58;95711.47;10354066;28;2023;-60
2023/09/19 21:22:48;;;;;;;;;;;;;;;23.40;46.89;95708.63;10342174;28;1835;-60
2023/09/19 21:27:48;;;;;;;;;;;;;;;23.43;46.90;95708.81;10361362;28;2224;-59
2023/09/19 21:32:49;;;;;;;;;;;;;;;23.41;47.08;95707.56;10368646;28;1952;-61
2023/09/19 21:37:49;;;;;;;;;;;;;;;23.39;47.20;95709.69;10369484;28;1880;-61
2023/09/19 21:42:49;;;;;;;;;;;;;;;23.39;47.61;95717.63;10356507;28;4591;-61
2023/09/19 21:47:49;;;;;;;;;;;;;;;23.39;47.71;95717.63;10356011;28;1916;-62
2023/09/19 21:52:50;;;;;;;;;;;;;;;23.39;47.65;95714.97;10361979;28;1877;-61
2023/09/19 21:57:51;;;;;;;;;;;;;;;23.39;48.00;95720.28;10367531;28;2103;-62
2023/09/19 22:02:54;;;;;;;;;;;;;;;23.39;47.85;95720.28;10329633;28;2000;-61
2023/09/19 22:07:55;;;;;;;;;;;;;;;23.39;48.15;95718.41;10366760;28;1920;-62
2023/09/19 22:12:59;;;;;;;;;;;;;;;23.40;47.96;95716.56;10366740;28;1904;-62
2023/09/19 22:17:59;;;;;;;;;;;;;;;23.39;47.98;95714.97;10372568;28;1889;-61
2023/09/19 22:23:00;;;;;;;;;;;;;;;23.39;48.03;95712.34;10350440;28;2000;-61
2023/09/19 22:28:02;;;;;;;;;;;;;;;23.37;48.19;95712.63;10363130;28;2420;-61
2023/09/19 22:33:02;;;;;;;;;;;;;;;23.36;48.16;95703.16;10343798;28;1888;-61
2023/09/19 22:38:03;;;;;;;;;;;;;;;23.36;48.31;95702.34;10346151;28;1850;-60
2023/09/19 22:43:06;;;;;;;;;;;;;;;23.36;48.08;95705.00;10360882;28;4610;-61
2023/09/19 22:48:09;;;;;;;;;;;;;;;23.35;48.07;95714.00;10354122;28;2107;-61
2023/09/19 22:53:14;;;;;;;;;;;;;;;23.36;48.26;95716.38;10363341;28;1849;-61
2023/09/19 22:58:14;;;;;;;;;;;;;;;23.35;48.34;95714.78;10353951;28;1974;-61
2023/09/19 23:03:16;;;;;;;;;;;;;;;23.36;48.22;95710.28;10364691;28;1845;-61
2023/09/19 23:08:17;;;;;;;;;;;;;;;23.35;47.96;95711.34;10345999;28;1981;-61
2023/09/19 23:13:31;;;;;;;;;;;;;;;23.35;48.09;95711.34;10354479;28;2331;-61
2023/09/19 23:18:32;;;;;;;;;;;;;;;23.33;48.34;95705.56;10336677;28;2085;-60
2023/09/19 23:23:33;;;;;;;;;;;;;;;23.33;48.24;95705.56;10341143;28;1901;-61
2023/09/19 23:28:39;;;;;;;;;;;;;;;23.33;48.13;95706.38;10350672;28;1914;-62
2023/09/19 23:33:40;;;;;;;;;;;;;;;23.32;48.22;95704.00;10337524;28;1981;-61
2023/09/19 23:38:41;;;;;;;;;;;;;;;23.32;48.14;95701.38;10352615;28;1713;-61
2023/09/19 23:43:41;;;;;;;;;;;;;;;23.32;47.98;95701.38;10352443;28;4698;-61
2023/09/19 23:48:42;;;;;;;;;;;;;;;23.31;48.14;95691.81;10353036;28;2185;-61
2023/09/19 23:53:42;;;;;;;;;;;;;;;23.30;48.14;95700.84;10364105;28;1920;-61
2023/09/19 23:58:46;;;;;;;;;;;;;;;23.30;47.94;95698.22;10348265;28;2549;-61
